Time;durP1;ratioP1;P1;durP2;ratioP2;P2;SDS_P1;SDS_P2;PMS_P1;PMS_P2;Temp;Humidity;BMP_temperature;BMP_pressure;BME280_temperature;BME280_humidity;BME280_pressure;Samples;Min_cycle;Max_cycle;Signal;HPM_P1;HPM_P2
2023/06/08 00:00:50;;;;;;;5.00;4.30;;;20.10;94.30;;;19.74;78.13;100760.56;4153736;28;20034;-77
2023/06/08 00:02:53;;;;;;;5.80;4.20;;;20.10;94.60;;;19.79;75.77;100758.06;4138647;28;20025;-77
2023/06/08 00:04:54;;;;;;;9.13;4.70;;;20.20;94.00;;;19.82;75.30;100763.00;4131825;28;20105;-77
2023/06/08 00:07:08;;;;;;;9.85;4.53;;;20.20;94.00;;;19.84;75.37;100750.19;4105289;28;20126;-77
2023/06/08 00:09:10;;;;;;;7.72;4.47;;;20.20;93.90;;;19.84;75.95;100758.22;4121343;28;20058;-77
2023/06/08 00:11:11;;;;;;;6.05;4.13;;;20.20;94.10;;;19.82;76.22;100758.47;4122601;28;20099;-77
2023/06/08 00:13:13;;;;;;;4.55;3.80;;;20.20;94.20;;;19.79;77.65;100758.06;4122645;28;20058;-77
2023/06/08 00:15:13;;;;;;;6.10;4.20;;;20.20;94.50;;;19.75;79.95;100756.84;4121254;28;20481;-77
2023/06/08 00:17:15;;;;;;;6.95;5.07;;;20.20;95.10;;;19.67;79.79;100755.25;4122069;28;20038;-77
2023/06/08 00:19:16;;;;;;;7.47;4.60;;;20.10;95.10;;;19.64;78.23;100755.69;4122357;28;20038;-77
2023/06/08 00:21:17;;;;;;;6.90;4.50;;;20.10;94.60;;;19.63;77.46;100751.34;4121180;28;20019;-77
2023/06/08 00:23:17;;;;;;;7.05;4.18;;;20.10;94.40;;;19.53;77.69;100748.34;4123999;28;20039;-77
2023/06/08 00:25:18;;;;;;;6.03;4.20;;;20.00;94.50;;;19.61;75.95;100748.09;4121030;28;20446;-77
2023/06/08 00:27:19;;;;;;;7.88;4.60;;;20.00;94.20;;;19.60;74.82;100746.44;4127313;28;20154;-77
2023/06/08 00:29:20;;;;;;;6.68;4.40;;;20.00;93.90;;;19.63;73.98;100742.50;4122440;28;20035;-77
2023/06/08 00:31:21;;;;;;;6.22;4.75;;;20.00;93.60;;;19.60;75.25;100733.06;4121051;28;20062;-77
2023/06/08 00:33:22;;;;;;;5.80;4.47;;;20.00;94.00;;;19.59;74.70;100746.66;4120904;28;20027;-77
2023/06/08 00:35:23;;;;;;;7.03;5.13;;;20.00;93.80;;;19.64;73.14;100741.47;4122425;28;20057;-77
2023/06/08 00:37:24;;;;;;;8.48;4.20;;;20.00;93.40;;;19.68;73.61;100738.13;4122197;28;20027;-77
2023/06/08 00:39:25;;;;;;;5.45;4.25;;;20.00;93.70;;;19.62;74.27;100736.31;4136911;28;20030;-77
2023/06/08 00:41:26;;;;;;;6.43;3.85;;;20.00;93.70;;;19.58;73.99;100729.78;4122138;28;20031;-77
2023/06/08 00:43:27;;;;;;;6.43;4.10;;;20.00;93.70;;;19.59;73.90;100715.34;4122143;28;20101;-77
2023/06/08 00:45:27;;;;;;;6.97;4.35;;;20.00;93.70;;;19.60;73.95;100729.56;4122039;28;20154;-77
2023/06/08 00:47:29;;;;;;;5.68;4.30;;;20.00;93.70;;;19.62;73.45;100733.66;4120614;28;20038;-77
2023/06/08 00:49:32;;;;;;;5.82;4.20;;;20.00;93.60;;;19.59;73.58;100720.69;4120637;28;20051;-77
2023/06/08 00:51:41;;;;;;;6.03;4.03;;;20.00;93.70;;;19.59;73.61;100726.03;4137117;28;20037;-76
2023/06/08 00:53:42;;;;;;;5.13;4.00;;;20.00;93.70;;;19.55;74.01;100722.19;4136796;28;20034;-76
2023/06/08 00:55:43;;;;;;;8.20;4.63;;;20.00;93.70;;;19.47;74.58;100711.75;4120828;28;20042;-77
2023/06/08 00:57:47;;;;;;;5.53;4.10;;;19.90;93.80;;;19.42;74.64;100708.88;4120596;28;20026;-77
2023/06/08 00:59:49;;;;;;;5.07;4.18;;;19.90;93.90;;;19.43;74.17;100715.88;4120704;28;20031;-77
2023/06/08 01:01:50;;;;;;;7.03;4.18;;;19.90;93.70;;;19.49;72.73;100709.66;4120487;28;20034;-77
2023/06/08 01:03:55;;;;;;;4.90;4.00;;;19.90;93.40;;;19.51;72.68;100715.59;4133361;28;20026;-77
2023/06/08 01:05:57;;;;;;;5.63;4.63;;;19.90;93.40;;;19.48;72.70;100705.34;4134965;28;20037;-77
2023/06/08 01:08:32;;;;;;;7.35;4.57;;;19.90;93.50;;;19.54;72.34;100709.00;4120662;28;20117;-77
2023/06/08 01:10:52;;;;;;;6.07;4.22;;;19.90;93.40;;;19.51;72.84;100707.59;4120059;28;20573;-77
2023/06/08 01:13:13;;;;;;;5.95;4.28;;;19.90;93.50;;;19.47;73.67;100703.72;4120668;28;20031;-77
2023/06/08 01:15:30;;;;;;;6.57;4.63;;;19.90;93.60;;;19.47;73.58;100708.25;4109283;28;20109;-77
2023/06/08 01:17:41;;;;;;;6.70;4.50;;;19.90;93.60;;;19.46;73.11;100694.03;4133184;28;20022;-76
2023/06/08 01:20:05;;;;;;;5.78;4.30;;;19.90;93.50;;;19.51;72.41;100704.06;4120264;28;20518;-77
2023/06/08 01:22:20;;;;;;;5.40;4.50;;;19.90;93.40;;;19.50;72.36;100700.63;4122872;28;20030;-77
2023/06/08 01:24:24;;;;;;;5.35;4.47;;;19.90;93.30;;;19.50;72.16;100689.09;4120396;28;20027;-77
2023/06/08 01:26:28;;;;;;;6.57;4.90;;;20.00;93.40;;;19.54;72.57;100690.28;4132952;28;20030;-77
2023/06/08 01:28:30;;;;;;;5.05;3.97;;;19.90;93.40;;;19.57;72.43;100689.84;4151750;28;20026;-77
2023/06/08 01:30:31;;;;;;;7.28;4.43;;;19.90;93.40;;;19.54;72.34;100696.44;4120149;28;20035;-77
2023/06/08 01:32:33;;;;;;;5.35;4.60;;;20.00;93.40;;;19.53;73.23;100694.84;4137258;28;20438;-77
2023/06/08 01:34:34;;;;;;;6.38;5.05;;;20.00;93.70;;;19.47;73.20;100687.66;4136448;28;20473;-77
2023/06/08 01:37:17;;;;;;;7.00;5.18;;;19.90;93.60;;;19.46;73.56;100677.97;4119836;28;20058;-77
2023/06/08 01:39:59;;;;;;;6.15;3.85;;;19.90;93.70;;;19.42;73.49;100692.81;4144672;28;20061;-77
2023/06/08 01:42:03;;;;;;;7.40;5.30;;;19.90;93.70;;;19.36;73.87;100682.94;4137350;28;20026;-77
2023/06/08 01:44:05;;;;;;;;;;;19.80;93.80;;;19.32;74.44;100693.25;4136782;28;20057;-77
2023/06/08 01:46:11;;;;;;;8.80;4.10;;;19.80;93.90;;;19.31;73.93;100685.44;4135531;28;19933;-77
2023/06/08 01:48:13;;;;;;;8.00;4.70;;;19.80;93.80;;;19.37;73.68;100689.94;4122665;28;20037;-77
2023/06/08 01:50:17;;;;;;;6.47;4.63;;;19.80;93.70;;;19.34;74.29;100685.03;4142307;28;20505;-77
2023/06/08 01:52:18;;;;;;;7.53;4.95;;;19.80;93.90;;;19.30;75.02;100689.97;4135936;28;20022;-77
2023/06/08 01:54:22;;;;;;;5.50;4.38;;;19.80;94.10;;;19.29;74.83;100688.31;4136953;28;20035;-77
2023/06/08 01:56:31;;;;;;;5.93;4.53;;;19.70;94.00;;;19.29;74.45;100672.28;4135859;28;20539;-77
2023/06/08 01:58:32;;;;;;;6.03;4.35;;;19.70;94.00;;;19.24;74.71;100680.13;4151969;28;20027;-77
2023/06/08 02:00:32;;;;;;;7.55;4.57;;;19.70;94.00;;;19.23;74.31;100675.00;4135791;28;20033;-77
2023/06/08 02:02:33;;;;;;;9.40;4.68;;;19.60;94.00;;;19.26;74.62;100674.59;4135523;28;20523;-77
2023/06/08 02:04:35;;;;;;;6.07;4.63;;;19.60;94.10;;;19.22;75.13;100681.38;4131640;28;20027;-77
2023/06/08 02:06:36;;;;;;;7.90;5.05;;;19.60;94.20;;;19.14;75.71;100685.13;4126738;28;20163;-77
2023/06/08 02:08:36;;;;;;;8.18;4.65;;;19.60;94.30;;;19.06;75.85;100673.84;4122686;28;20036;-77
2023/06/08 02:10:37;;;;;;;7.45;4.53;;;19.60;94.30;;;19.07;76.82;100680.84;4135545;28;20453;-77
2023/06/08 02:12:39;;;;;;;5.93;4.50;;;19.50;94.60;;;18.95;77.75;100686.03;4136874;28;20026;-77
2023/06/08 02:14:40;;;;;;;8.80;4.97;;;19.50;94.80;;;18.89;77.70;100680.69;4135626;28;20137;-77
2023/06/08 02:16:45;;;;;;;6.65;4.57;;;19.40;94.70;;;18.85;77.48;100676.78;4125832;28;20093;-77
2023/06/08 02:18:46;;;;;;;6.32;4.28;;;19.30;94.70;;;18.86;77.88;100681.13;4119192;28;20042;-77
2023/06/08 02:20:47;;;;;;;8.40;5.57;;;19.30;94.80;;;18.79;78.60;100691.84;4119936;28;20046;-77
2023/06/08 02:22:48;;;;;;;5.75;4.70;;;19.30;94.90;;;18.79;77.90;100686.50;4128359;28;20034;-77
2023/06/08 02:24:49;;;;;;;6.18;4.90;;;19.30;94.80;;;18.79;78.83;100691.84;4136730;28;20022;-77
2023/06/08 02:26:54;;;;;;;9.10;5.07;;;19.20;95.10;;;18.72;79.21;100686.53;4119224;28;20023;-78
2023/06/08 02:28:55;;;;;;;6.50;4.60;;;19.20;95.10;;;18.71;79.51;100695.56;4120732;28;20534;-77
2023/06/08 02:30:56;;;;;;;6.28;4.28;;;19.20;95.20;;;18.68;80.22;100695.16;4120463;28;20037;-77
2023/06/08 02:32:57;;;;;;;5.63;4.50;;;19.10;95.30;;;18.68;79.92;100689.81;4120183;28;20034;-77
2023/06/08 02:34:57;;;;;;;7.03;4.70;;;19.10;95.30;;;18.64;79.79;100692.09;4120452;28;20093;-77
2023/06/08 02:36:58;;;;;;;6.18;4.60;;;19.10;95.30;;;18.64;80.02;100689.41;4131493;28;20030;-77
2023/06/08 02:39:00;;;;;;;5.00;4.50;;;19.10;95.40;;;18.68;79.53;100689.81;4120076;28;20113;-77
2023/06/08 02:41:00;;;;;;;6.15;4.70;;;19.10;95.30;;;18.68;79.65;100695.16;4120461;28;20022;-77
2023/06/08 02:43:01;;;;;;;8.60;4.95;;;19.10;95.30;;;18.69;80.20;100689.63;4120201;28;20082;-77
2023/06/08 02:45:02;;;;;;;9.40;5.32;;;19.10;95.50;;;18.67;79.97;100682.81;4129120;28;20035;-77
2023/06/08 02:47:04;;;;;;;7.82;4.65;;;19.10;95.40;;;18.68;79.97;100685.31;4129720;28;20033;-77
2023/06/08 02:49:05;;;;;;;6.82;5.10;;;19.10;95.40;;;18.68;79.50;100679.97;4118973;28;20031;-78
2023/06/08 02:51:06;;;;;;;6.82;4.43;;;19.10;95.30;;;18.68;79.65;100685.31;4135066;28;20034;-77
2023/06/08 02:53:08;;;;;;;7.60;5.15;;;19.10;95.40;;;18.69;80.00;100700.31;4122248;28;20026;-77
2023/06/08 02:55:08;;;;;;;6.45;4.90;;;19.10;95.40;;;18.70;79.41;100677.88;4136219;28;20110;-77
2023/06/08 02:57:09;;;;;;;5.47;4.70;;;19.10;95.30;;;18.72;79.34;100685.72;4135055;28;20030;-77
2023/06/08 02:59:10;;;;;;;9.70;4.80;;;19.10;95.30;;;18.69;79.11;100697.63;4134934;28;20034;-77
2023/06/08 03:01:14;;;;;;;4.97;4.47;;;19.20;95.30;;;18.78;78.72;100693.72;4136039;28;20014;-77
2023/06/08 03:03:15;;;;;;;;;;;19.20;95.20;;;18.72;79.08;100688.38;4136572;28;20497;-77
2023/06/08 03:05:16;;;;;;;6.28;4.38;;;19.20;95.30;;;18.77;78.64;100694.72;4126732;28;19916;-77
2023/06/08 03:07:17;;;;;;;6.60;4.25;;;19.20;95.10;;;18.78;78.83;100695.56;4136009;28;20026;-77
2023/06/08 03:09:18;;;;;;;5.95;4.30;;;19.20;95.20;;;18.79;78.80;100692.66;4136183;28;20069;-77
2023/06/08 03:11:22;;;;;;;5.45;4.38;;;19.20;95.20;;;18.75;79.46;100694.13;4134828;28;20038;-77
2023/06/08 03:13:23;;;;;;;7.72;4.68;;;19.20;95.40;;;18.72;79.36;100683.03;4150811;28;20532;-77
2023/06/08 03:15:23;;;;;;;7.80;4.90;;;19.10;95.30;;;18.69;79.12;100684.28;4134569;28;20038;-77
2023/06/08 03:17:24;;;;;;;5.85;3.53;;;19.10;95.30;;;18.68;79.38;100687.16;4134805;28;20030;-77
2023/06/08 03:19:25;;;;;;;6.65;4.72;;;19.10;95.40;;;18.65;79.60;100690.22;4135993;28;20093;-77
2023/06/08 03:21:28;;;;;;;6.25;4.68;;;19.10;95.40;;;18.64;79.60;100683.25;4134417;28;20026;-77
2023/06/08 03:23:30;;;;;;;6.15;4.82;;;19.00;95.40;;;18.60;79.77;100690.88;4122703;28;20371;-77
2023/06/08 03:25:31;;;;;;;5.57;4.45;;;19.10;95.50;;;18.57;80.24;100685.94;4120005;28;20023;-77
2023/06/08 03:27:32;;;;;;;7.60;4.90;;;19.00;95.60;;;18.48;80.81;100681.84;4119917;28;20031;-77
2023/06/08 03:29:33;;;;;;;5.47;4.25;;;19.00;95.70;;;18.41;81.23;100678.34;4118903;28;20023;-78
2023/06/08 03:31:37;;;;;;;5.60;4.30;;;18.90;95.80;;;18.35;82.32;100681.84;4119637;28;20034;-77
2023/06/08 03:33:39;;;;;;;9.80;5.57;;;18.80;96.00;;;18.31;82.47;100679.81;4125180;28;20564;-77
2023/06/08 03:35:40;;;;;;;9.15;5.35;;;18.80;96.00;;;18.26;83.14;100683.09;4121754;28;20058;-77
2023/06/08 03:37:41;;;;;;;5.43;4.43;;;18.70;96.20;;;18.21;83.03;100673.03;4128118;28;20407;-77
2023/06/08 03:39:41;;;;;;;8.65;5.68;;;18.70;96.20;;;18.17;83.89;100668.31;4137769;28;20041;-77
2023/06/08 03:41:42;;;;;;;9.45;5.55;;;18.70;96.40;;;18.11;83.65;100658.47;4121946;28;20027;-77
2023/06/08 03:43:43;;;;;;;9.70;5.40;;;18.60;96.60;;;18.13;83.20;100662.56;4121873;28;20061;-77
2023/06/08 03:45:44;;;;;;;7.30;5.15;;;18.60;96.20;;;18.14;83.49;100671.38;4142957;28;20018;-77
2023/06/08 03:47:45;;;;;;;7.40;4.65;;;18.60;96.30;;;18.12;83.75;100668.94;4126046;28;20031;-77
2023/06/08 03:49:46;;;;;;;12.20;5.10;;;18.60;96.40;;;18.12;83.13;100665.44;4122733;28;20721;-77
2023/06/08 03:51:47;;;;;;;9.65;4.97;;;18.60;96.20;;;18.13;83.52;100669.75;4122872;28;20502;-77
2023/06/08 03:53:50;;;;;;;6.90;5.13;;;18.60;96.30;;;18.10;83.81;100659.47;4122698;28;20512;-77
2023/06/08 03:55:50;;;;;;;10.25;5.15;;;18.60;96.40;;;18.06;83.83;100658.25;4118255;28;20585;-77
2023/06/08 03:57:52;;;;;;;7.07;5.18;;;18.60;96.40;;;18.08;83.88;100675.72;4122796;28;20035;-77
2023/06/08 03:59:52;;;;;;;6.22;4.57;;;18.60;96.40;;;18.05;84.38;100676.13;4122919;28;20398;-77
2023/06/08 04:01:53;;;;;;;8.23;5.70;;;18.50;96.50;;;17.99;84.34;100666.28;4122132;28;20038;-77
2023/06/08 04:03:54;;;;;;;5.97;5.00;;;18.50;96.50;;;18.02;84.63;100673.03;4133617;28;20030;-77
2023/06/08 04:05:56;;;;;;;7.85;5.00;;;18.50;96.60;;;17.98;84.86;100672.63;4127678;28;20041;-77
2023/06/08 04:08:01;;;;;;;6.38;4.50;;;18.50;96.90;;;17.98;85.45;100675.28;4122800;28;20030;-77
2023/06/08 04:10:02;;;;;;;9.13;5.68;;;18.40;96.80;;;17.94;86.25;100675.94;4122837;28;20035;-77
2023/06/08 04:12:03;;;;;;;8.23;5.50;;;18.40;97.00;;;17.86;85.78;100665.47;4122685;28;20030;-77
2023/06/08 04:14:04;;;;;;;9.10;5.18;;;18.40;96.90;;;17.84;86.37;100665.66;4121129;28;20065;-77
2023/06/08 04:16:09;;;;;;;9.70;6.10;;;18.30;97.00;;;17.78;86.61;100662.97;4124207;28;20556;-77
2023/06/08 04:18:11;;;;;;;8.98;5.45;;;18.30;97.00;;;17.72;87.36;100672.63;4122551;28;20030;-77
2023/06/08 04:20:12;;;;;;;9.15;4.97;;;18.20;97.20;;;17.66;88.31;100670.75;4122377;28;20114;-77
2023/06/08 04:22:13;;;;;;;8.43;5.68;;;18.10;97.30;;;17.63;89.34;100668.50;4124306;28;20126;-78
2023/06/08 04:24:16;;;;;;;6.90;5.22;;;18.10;97.60;;;17.56;89.38;100665.81;4122420;28;20022;-77
2023/06/08 04:26:17;;;;;;;7.00;5.40;;;18.00;97.60;;;17.46;90.03;100662.72;4130026;28;20464;-77
2023/06/08 04:28:18;;;;;;;8.93;5.35;;;18.00;97.70;;;17.49;90.65;100667.66;4126031;28;20105;-77
2023/06/08 04:30:19;;;;;;;7.90;5.50;;;17.90;97.90;;;17.43;91.17;100668.47;4122104;28;20450;-77
2023/06/08 04:32:20;;;;;;;6.78;5.43;;;17.90;98.00;;;17.40;91.87;100671.53;4120799;28;20023;-77
2023/06/08 04:34:21;;;;;;;9.80;5.60;;;17.90;98.10;;;17.42;91.66;100677.47;4137167;28;20038;-78
2023/06/08 04:36:22;;;;;;;7.68;5.90;;;17.80;98.10;;;17.38;92.12;100670.88;4122119;28;20031;-77
2023/06/08 04:38:25;;;;;;;12.18;6.25;;;17.80;98.20;;;17.36;92.56;100667.59;4104725;28;20035;-76
2023/06/08 04:40:26;;;;;;;8.13;5.13;;;17.80;98.30;;;17.39;91.99;100679.72;4136914;28;20117;-77
2023/06/08 04:42:27;;;;;;;6.97;5.05;;;17.80;98.10;;;17.32;91.88;100669.06;4128626;28;20035;-77
2023/06/08 04:44:31;;;;;;;6.68;5.38;;;17.80;98.10;;;17.38;92.35;100680.75;4134900;28;20078;-77
2023/06/08 04:46:37;;;;;;;6.80;4.85;;;17.80;98.20;;;17.36;91.39;100683.59;4137468;28;20042;-77
2023/06/08 04:48:38;;;;;;;7.95;5.43;;;17.80;98.10;;;17.38;90.82;100673.56;4130064;28;20028;-77
2023/06/08 04:50:45;;;;;;;8.75;5.40;;;17.80;97.90;;;17.41;90.96;100675.81;4137874;28;20109;-77
2023/06/08 04:52:47;;;;;;;8.15;5.40;;;17.90;98.00;;;17.41;91.13;100673.16;4138010;28;20023;-76
2023/06/08 04:54:52;;;;;;;6.75;5.15;;;17.90;98.10;;;17.42;90.79;100672.13;4138132;28;20389;-77
2023/06/08 04:56:58;;;;;;;7.70;5.15;;;17.90;98.00;;;17.43;90.81;100672.97;4138097;28;20087;-76
2023/06/08 04:59:02;;;;;;;9.55;5.32;;;17.90;98.00;;;17.45;90.96;100674.41;4137729;28;20092;-77
2023/06/08 05:01:03;;;;;;;7.40;5.68;;;17.90;98.00;;;17.46;90.00;100680.56;4121691;28;20023;-77
2023/06/08 05:03:04;;;;;;;8.63;5.70;;;17.90;97.80;;;17.52;88.21;100672.56;4127276;28;20027;-77
2023/06/08 05:05:05;;;;;;;7.80;5.43;;;17.90;97.50;;;17.63;87.15;100669.34;4112270;28;20035;-77
2023/06/08 05:07:06;;;;;;;7.15;4.90;;;18.10;97.40;;;17.68;86.98;100674.88;4121890;28;20031;-77
2023/06/08 05:09:07;;;;;;;9.10;6.00;;;18.10;97.40;;;17.74;86.63;100667.09;4128390;28;20076;-77
2023/06/08 05:11:09;;;;;;;6.57;4.70;;;18.10;97.30;;;17.83;85.46;100671.22;4137792;28;20113;-77
2023/06/08 05:13:10;;;;;;;7.30;4.68;;;18.20;97.00;;;17.90;85.00;100664.00;4137900;28;20481;-77
2023/06/08 05:15:11;;;;;;;7.07;4.10;;;18.30;97.00;;;17.95;85.59;100664.22;4136299;28;20061;-76
2023/06/08 05:17:12;;;;;;;6.18;5.25;;;18.40;97.20;;;18.03;85.76;100653.34;4136059;28;20080;-77
2023/06/08 05:19:13;;;;;;;9.98;5.35;;;18.40;97.20;;;18.09;84.73;100652.50;4131104;28;20430;-77
2023/06/08 05:21:14;;;;;;;7.90;5.07;;;18.50;96.90;;;18.27;83.03;100660.72;4120445;28;20026;-77
2023/06/08 05:23:15;;;;;;;7.60;5.53;;;18.60;96.70;;;18.42;82.76;100661.28;4133306;28;20082;-76
2023/06/08 05:25:16;;;;;;;5.80;4.88;;;18.70;96.70;;;18.56;82.42;100659.44;4137482;28;20069;-76
2023/06/08 05:27:17;;;;;;;6.25;4.63;;;18.80;96.70;;;18.65;82.55;100660.84;4137634;28;20030;-76
2023/06/08 05:29:18;;;;;;;6.15;4.53;;;18.90;96.80;;;18.77;82.23;100657.31;4129313;28;20033;-77
2023/06/08 05:31:19;;;;;;;7.85;4.45;;;19.00;96.90;;;18.90;81.50;100671.66;4119982;28;20038;-76
2023/06/08 05:33:20;;;;;;;8.60;4.88;;;19.10;96.70;;;18.99;80.03;100659.69;4121212;28;20031;-76
2023/06/08 05:35:21;;;;;;;6.07;4.15;;;19.20;96.40;;;19.13;79.56;100669.28;4121372;28;20507;-77
2023/06/08 05:37:21;;;;;;;7.18;4.40;;;19.30;96.30;;;19.21;79.42;100659.16;4125297;28;20027;-76
2023/06/08 05:39:22;;;;;;;8.57;4.07;;;19.40;96.40;;;19.35;78.60;100663.38;4136105;28;20023;-77
2023/06/08 05:41:23;;;;;;;7.63;5.00;;;19.50;96.20;;;19.42;78.19;100666.06;4123372;28;20034;-77
2023/06/08 05:43:24;;;;;;;5.70;3.92;;;19.60;96.10;;;19.48;77.31;100667.88;4120101;28;20034;-77
2023/06/08 05:45:25;;;;;;;6.00;3.95;;;19.60;95.90;;;19.57;76.17;100655.88;4120390;28;20023;-78
2023/06/08 05:47:26;;;;;;;6.25;3.92;;;19.70;95.70;;;19.67;75.96;100661.59;4120895;28;20113;-78
2023/06/08 05:49:27;;;;;;;4.85;4.03;;;19.80;95.60;;;19.72;75.26;100667.09;4129886;28;20119;-76
2023/06/08 05:51:28;;;;;;;9.23;5.07;;;19.90;95.50;;;19.70;75.41;100658.47;4136209;28;20030;-76
2023/06/08 05:53:29;;;;;;;4.68;3.78;;;19.90;95.40;;;19.83;75.42;100657.56;4135922;28;20026;-76
2023/06/08 05:55:30;;;;;;;7.10;5.00;;;20.00;95.50;;;19.88;74.54;100679.97;4135716;28;20037;-77
2023/06/08 05:57:31;;;;;;;5.53;3.92;;;20.10;95.30;;;19.93;74.69;100670.44;4135675;28;20027;-76
2023/06/08 05:59:32;;;;;;;8.90;4.38;;;20.10;95.30;;;19.96;74.60;100649.41;4133488;28;20031;-76
2023/06/08 06:01:33;;;;;;;6.43;4.00;;;20.20;95.60;;;20.08;74.43;100666.38;4119540;28;20027;-77
2023/06/08 06:03:33;;;;;;;5.45;4.57;;;20.20;95.30;;;20.17;73.79;100669.59;4103478;28;20122;-78
2023/06/08 06:05:34;;;;;;;6.75;3.50;;;20.30;95.30;;;20.25;74.44;100658.63;4120869;28;20038;-78
2023/06/08 06:07:36;;;;;;;7.50;4.38;;;20.40;95.40;;;20.32;73.73;100667.44;4119668;28;20026;-77
2023/06/08 06:09:37;;;;;;;6.97;4.82;;;20.40;95.30;;;20.42;73.42;100665.91;4114719;28;20019;-76
2023/06/08 06:11:38;;;;;;;5.15;3.78;;;20.50;95.20;;;20.47;74.52;100659.03;4120764;28;20030;-78
2023/06/08 06:13:39;;;;;;;4.63;3.88;;;20.60;95.40;;;20.50;72.75;100663.94;4103408;28;20118;-78
2023/06/08 06:15:40;;;;;;;6.43;4.00;;;20.60;95.00;;;20.50;72.18;100664.78;4132295;28;20054;-77
2023/06/08 06:17:41;;;;;;;5.40;3.95;;;20.70;94.80;;;20.55;71.96;100666.81;4135469;28;20395;-76
2023/06/08 06:19:42;;;;;;;4.32;3.72;;;20.70;94.70;;;20.57;71.94;100643.25;4143245;28;20026;-77
2023/06/08 06:21:43;;;;;;;4.45;3.83;;;20.80;94.70;;;20.78;71.90;100667.75;4119734;28;20018;-77
2023/06/08 06:23:46;;;;;;;5.43;3.38;;;21.00;94.70;;;20.86;71.63;100664.78;4120441;28;20041;-76
2023/06/08 06:25:47;;;;;;;7.60;4.05;;;21.00;94.50;;;20.96;71.05;100664.25;4120611;28;20034;-76
2023/06/08 06:27:48;;;;;;;7.68;3.65;;;21.20;94.50;;;21.18;70.38;100662.72;4103446;28;20031;-76
2023/06/08 06:29:49;;;;;;;5.80;3.70;;;21.30;94.40;;;21.43;70.35;100666.09;4121644;28;20475;-77
2023/06/08 06:31:50;;;;;;;5.38;4.07;;;21.50;94.40;;;21.60;68.79;100657.38;4120054;28;20050;-77
2023/06/08 06:33:51;;;;;;;9.38;3.78;;;21.70;94.10;;;21.81;69.48;100656.84;4119465;28;20165;-76
2023/06/08 06:35:53;;;;;;;4.97;3.60;;;21.90;94.20;;;21.91;70.14;100655.25;4120317;28;20019;-77
2023/06/08 06:37:55;;;;;;;6.70;3.50;;;22.10;94.40;;;21.98;69.17;100658.63;4120405;28;20397;-76
2023/06/08 06:39:56;;;;;;;7.32;3.70;;;22.20;94.20;;;21.99;68.73;100665.66;4132204;28;20026;-76
2023/06/08 06:41:57;;;;;;;6.50;4.13;;;22.20;93.90;;;21.93;69.87;100655.84;4124634;28;20397;-77
2023/06/08 06:43:58;;;;;;;7.53;3.63;;;22.20;94.20;;;21.79;68.30;100653.56;4135206;28;20046;-76
2023/06/08 06:45:59;;;;;;;5.78;3.50;;;22.20;93.70;;;21.78;67.31;100668.88;4145724;28;20030;-77
2023/06/08 06:48:00;;;;;;;5.85;3.60;;;22.10;93.20;;;21.68;66.65;100663.25;4136214;28;20078;-78
2023/06/08 06:50:01;;;;;;;7.05;3.28;;;22.10;93.00;;;21.71;66.29;100668.16;4135062;28;20089;-77
2023/06/08 06:52:02;;;;;;;4.85;3.15;;;22.10;93.00;;;21.77;65.95;100661.88;4136276;28;20111;-77
2023/06/08 06:54:03;;;;;;;6.13;3.40;;;22.20;92.90;;;22.03;66.83;100658.78;4135065;28;20114;-77
2023/06/08 06:56:04;;;;;;;6.32;3.53;;;22.30;93.20;;;22.22;65.95;100661.34;4135959;28;20065;-79
2023/06/08 06:58:06;;;;;;;4.38;2.90;;;22.50;93.10;;;22.63;64.75;100668.44;4134900;28;20043;-80
2023/06/08 07:00:07;;;;;;;6.88;4.55;;;22.70;92.90;;;22.96;62.95;100669.44;4128968;28;20050;-78
2023/06/08 07:02:08;;;;;;;4.18;2.83;;;23.00;92.30;;;23.08;62.53;100667.53;4118599;28;20037;-78
2023/06/08 07:04:10;;;;;;;8.68;3.42;;;23.20;92.30;;;23.27;62.39;100665.44;4133151;28;20026;-78
2023/06/08 07:06:12;;;;;;;6.85;3.35;;;23.30;92.40;;;23.41;61.30;100664.16;4120117;28;20031;-78
2023/06/08 07:08:13;;;;;;;7.18;3.53;;;23.40;91.90;;;23.49;59.43;100665.63;4119520;28;20030;-78
2023/06/08 07:10:13;;;;;;;7.05;3.22;;;23.50;91.10;;;23.52;59.19;100665.13;4118907;28;20031;-78
2023/06/08 07:12:15;;;;;;;8.88;4.00;;;23.60;91.10;;;23.42;59.84;100676.53;4120109;28;20038;-78
2023/06/08 07:14:16;;;;;;;7.85;3.15;;;23.50;91.30;;;23.62;59.37;100665.31;4120135;28;20482;-78
2023/06/08 07:16:17;;;;;;;4.20;3.28;;;23.60;91.20;;;23.52;58.40;100662.44;4118370;28;20050;-78
2023/06/08 07:18:18;;;;;;;9.85;4.07;;;23.60;90.80;;;23.35;57.32;100661.56;4125575;28;20026;-78
2023/06/08 07:20:18;;;;;;;7.20;3.40;;;23.50;90.10;;;23.25;57.52;100654.13;4134709;28;20037;-79
2023/06/08 07:22:19;;;;;;;6.10;3.63;;;23.50;90.10;;;23.22;58.51;100664.53;4132060;28;20042;-78
2023/06/08 07:24:21;;;;;;;8.43;3.47;;;23.40;90.50;;;23.18;59.80;100658.81;4119924;28;20058;-76
2023/06/08 07:26:21;;;;;;;5.13;2.97;;;23.30;91.10;;;23.20;60.26;100655.91;4118757;28;20521;-75
2023/06/08 07:28:22;;;;;;;5.72;3.42;;;23.30;91.30;;;23.19;59.20;100655.09;4119851;28;20019;-77
2023/06/08 07:30:24;;;;;;;7.25;3.83;;;23.30;91.00;;;22.89;59.44;100658.00;4120015;28;20035;-77
2023/06/08 07:32:26;;;;;;;9.25;3.28;;;23.10;90.70;;;22.89;59.50;100667.94;4119627;28;20034;-77
2023/06/08 07:34:27;;;;;;;6.80;4.00;;;23.10;90.90;;;22.64;60.15;100662.81;4128533;28;20034;-78
2023/06/08 07:36:28;;;;;;;6.47;4.00;;;22.90;90.80;;;22.53;60.98;100663.66;4122365;28;20027;-75
2023/06/08 07:38:30;;;;;;;6.68;3.30;;;22.80;91.20;;;22.58;61.26;100650.31;4119721;28;20027;-75
2023/06/08 07:40:31;;;;;;;4.80;3.00;;;22.80;91.50;;;22.74;61.16;100663.06;4119356;28;20023;-75
2023/06/08 07:42:32;;;;;;;6.97;3.97;;;22.80;91.60;;;22.70;61.41;100655.72;4118643;28;20033;-75
2023/06/08 07:44:33;;;;;;;6.45;3.67;;;22.80;91.60;;;22.80;60.80;100659.44;4119693;28;20023;-76
2023/06/08 07:46:33;;;;;;;10.18;3.40;;;22.80;91.50;;;22.62;60.93;100651.47;4119636;28;20085;-75
2023/06/08 07:48:34;;;;;;;9.00;3.28;;;22.80;91.40;;;22.76;61.20;100658.25;4118601;28;20023;-75
2023/06/08 07:50:35;;;;;;;7.60;3.67;;;22.80;91.40;;;22.77;61.07;100656.38;4119759;28;20034;-75
2023/06/08 07:52:37;;;;;;;9.13;3.70;;;22.90;91.40;;;22.71;61.61;100651.97;4119737;28;20560;-75
2023/06/08 07:54:38;;;;;;;5.32;3.40;;;22.90;91.60;;;22.69;61.43;100646.00;4118614;28;20101;-75
2023/06/08 07:56:39;;;;;;;6.90;3.88;;;22.90;91.50;;;22.75;60.98;100650.44;4119796;28;20042;-75
2023/06/08 07:58:40;;;;;;;7.43;3.55;;;22.90;91.30;;;22.78;61.72;100644.59;4134340;28;20038;-75
2023/06/08 08:00:41;;;;;;;4.45;3.10;;;23.00;91.60;;;22.83;61.70;100648.19;4119803;28;20046;-75
2023/06/08 08:02:43;;;;;;;6.65;3.70;;;23.10;91.60;;;22.64;62.03;100641.28;4121876;28;20027;-75
2023/06/08 08:04:44;;;;;;;5.35;3.85;;;23.10;91.50;;;22.71;61.51;100647.41;4130148;28;20054;-75
2023/06/08 08:06:45;;;;;;;8.35;3.45;;;23.10;91.30;;;22.91;61.91;100653.19;4119816;28;20041;-75
2023/06/08 08:08:45;;;;;;;6.07;3.50;;;23.20;91.60;;;23.12;61.31;100643.63;4134523;28;20050;-75
2023/06/08 08:10:47;;;;;;;5.90;3.22;;;23.30;91.50;;;23.32;63.00;100646.72;4135569;28;20034;-75
2023/06/08 08:12:48;;;;;;;9.90;3.75;;;23.50;92.10;;;23.40;60.82;100645.53;4135531;28;20031;-75
2023/06/08 08:14:49;;;;;;;5.25;3.42;;;23.70;91.30;;;23.45;60.65;100642.91;4134356;28;20024;-75
2023/06/08 08:16:51;;;;;;;8.85;3.90;;;23.70;91.20;;;23.54;61.57;100654.94;4135489;28;20049;-75
2023/06/08 08:18:52;;;;;;;5.75;3.20;;;23.80;91.50;;;23.75;61.21;100664.97;4136780;28;20026;-75
2023/06/08 08:20:53;;;;;;;7.13;3.47;;;23.90;91.70;;;23.95;60.20;100664.53;4138663;28;20022;-76
2023/06/08 08:22:53;;;;;;;10.57;4.15;;;24.00;91.30;;;23.75;59.52;100651.53;4129777;28;20030;-76
2023/06/08 08:24:54;;;;;;;6.93;3.67;;;24.10;90.90;;;23.76;59.56;100644.25;4121272;28;20422;-76
2023/06/08 08:26:55;;;;;;;7.32;3.92;;;24.10;90.90;;;23.83;59.34;100644.94;4122144;28;20077;-76
2023/06/08 08:28:57;;;;;;;10.10;4.50;;;24.10;90.80;;;23.78;57.96;100640.25;4121413;28;20034;-76